Time;durP1;ratioP1;P1;durP2;ratioP2;P2;SDS_P1;SDS_P2;PMS_P1;PMS_P2;Temp;Humidity;BMP_temperature;BMP_pressure;BME280_temperature;BME280_humidity;BME280_pressure;Samples;Min_cycle;Max_cycle;Signal;HPM_P1;HPM_P2
2023/04/07 00:00:26;;;;;;;13.70;9.97;;;;;;;;;;5015271;28;20552;-71
2023/04/07 00:03:30;;;;;;;13.87;9.80;;;;;;;;;;5004188;28;21080;-70
2023/04/07 00:06:34;;;;;;;13.57;9.33;;;;;;;;;;5015633;28;20544;-71
2023/04/07 00:09:38;;;;;;;14.80;9.83;;;;;;;;;;5015407;28;20874;-70
2023/04/07 00:12:42;;;;;;;14.63;9.67;;;;;;;;;;5016399;28;20623;-70
2023/04/07 00:15:47;;;;;;;14.43;9.93;;;;;;;;;;5003951;28;21128;-70
2023/04/07 00:18:51;;;;;;;14.67;9.73;;;;;;;;;;5015947;28;20647;-70
2023/04/07 00:21:55;;;;;;;15.03;10.00;;;;;;;;;;5015667;28;20631;-71
2023/04/07 00:24:59;;;;;;;16.37;8.57;;;;;;;;;;5015819;28;20547;-70
2023/04/07 00:28:03;;;;;;;16.80;9.77;;;;;;;;;;5016158;28;21068;-70
2023/04/07 00:31:08;;;;;;;14.57;9.80;;;;;;;;;;5015817;28;20627;-70
2023/04/07 00:34:12;;;;;;;16.53;9.73;;;;;;;;;;4992432;28;20553;-70
2023/04/07 00:37:16;;;;;;;13.77;9.60;;;;;;;;;;5003516;28;20965;-70
2023/04/07 00:40:20;;;;;;;17.77;10.80;;;;;;;;;;5015265;28;20973;-70
2023/04/07 00:43:24;;;;;;;16.47;10.47;;;;;;;;;;5003404;28;20540;-70
2023/04/07 00:46:28;;;;;;;17.33;11.03;;;;;;;;;;4992520;28;20560;-70
2023/04/07 00:49:33;;;;;;;17.93;10.40;;;;;;;;;;5015228;28;20557;-70
2023/04/07 00:52:39;;;;;;;15.70;10.23;;;;;;;;;;5003464;28;20626;-70
2023/04/07 00:55:43;;;;;;;17.00;10.73;;;;;;;;;;5015819;28;20889;-70
2023/04/07 00:58:47;;;;;;;14.23;9.80;;;;;;;;;;5014911;28;20593;-71
2023/04/07 01:02:06;;;;;;;15.67;9.03;;;;;;;;;;5002938;28;20611;-70
2023/04/07 01:05:20;;;;;;;15.53;9.57;;;;;;;;;;5014188;28;20553;-71
2023/04/07 01:08:52;;;;;;;13.83;9.90;;;;;;;;;;5014368;28;20549;-71
2023/04/07 01:12:35;;;;;;;17.83;9.57;;;;;;;;;;5002725;28;20607;-71
2023/04/07 01:15:42;;;;;;;16.43;10.13;;;;;;;;;;5013892;28;20537;-71
2023/04/07 01:18:51;;;;;;;14.57;10.33;;;;;;;;;;5013297;28;20611;-70
2023/04/07 01:21:57;;;;;;;19.47;10.70;;;;;;;;;;5002668;28;20625;-70
2023/04/07 01:25:30;;;;;;;15.87;10.97;;;;;;;;;;5014068;28;21091;-70
2023/04/07 01:28:54;;;;;;;17.00;10.23;;;;;;;;;;4983873;28;20615;-70
2023/04/07 01:32:00;;;;;;;15.73;10.07;;;;;;;;;;5002495;28;20627;-70
2023/04/07 01:35:08;;;;;;;15.50;10.93;;;;;;;;;;5014633;28;20603;-70
2023/04/07 01:38:13;;;;;;;15.53;10.57;;;;;;;;;;5013749;28;20651;-71
2023/04/07 01:41:18;;;;;;;16.00;10.30;;;;;;;;;;5014128;28;20658;-70
2023/04/07 01:44:24;;;;;;;14.57;9.47;;;;;;;;;;5013969;28;20554;-70
2023/04/07 01:47:31;;;;;;;15.17;10.03;;;;;;;;;;5014437;28;20894;-71
2023/04/07 01:50:37;;;;;;;16.07;9.97;;;;;;;;;;5013915;28;20615;-70
2023/04/07 01:53:42;;;;;;;12.63;8.90;;;;;;;;;;5013899;28;20600;-70
2023/04/07 01:56:47;;;;;;;14.97;9.67;;;;;;;;;;5014062;28;21159;-70
2023/04/07 01:59:52;;;;;;;15.40;9.87;;;;;;;;;;5014063;28;20600;-70
2023/04/07 02:03:19;;;;;;;14.70;10.50;;;;;;;;;;5013388;28;21085;-70
2023/04/07 02:06:34;;;;;;;15.90;9.83;;;;;;;;;;5013097;28;20579;-70
2023/04/07 02:09:41;;;;;;;12.37;9.43;;;;;;;;;;5012980;28;20541;-70
2023/04/07 02:12:46;;;;;;;14.37;10.33;;;;;;;;;;5012925;28;20624;-70
2023/04/07 02:15:55;;;;;;;15.10;9.43;;;;;;;;;;5001993;28;20549;-70
2023/04/07 02:19:01;;;;;;;14.93;9.67;;;;;;;;;;5012851;28;20934;-71
2023/04/07 02:22:05;;;;;;;15.57;10.03;;;;;;;;;;4990175;28;20616;-71
2023/04/07 02:25:21;;;;;;;15.13;10.17;;;;;;;;;;5001575;28;21103;-71
2023/04/07 02:28:26;;;;;;;13.47;10.00;;;;;;;;;;5001575;28;20555;-70
2023/04/07 02:31:30;;;;;;;15.30;9.90;;;;;;;;;;4990203;28;20636;-70
2023/04/07 02:34:35;;;;;;;14.03;9.43;;;;;;;;;;5001502;28;20545;-71
2023/04/07 02:37:39;;;;;;;15.53;10.13;;;;;;;;;;5013171;28;20556;-71
2023/04/07 02:40:43;;;;;;;15.00;10.10;;;;;;;;;;5007764;28;20720;-71
2023/04/07 02:43:47;;;;;;;14.77;10.17;;;;;;;;;;5001702;28;20624;-70
2023/04/07 02:46:51;;;;;;;14.43;10.03;;;;;;;;;;5012651;28;20637;-71
2023/04/07 02:49:55;;;;;;;14.83;9.77;;;;;;;;;;5001617;28;20552;-70
2023/04/07 02:52:59;;;;;;;12.17;8.57;;;;;;;;;;5012571;28;20552;-70
2023/04/07 02:56:03;;;;;;;11.33;8.67;;;;;;;;;;5001206;28;20545;-71
2023/04/07 02:59:07;;;;;;;13.50;9.87;;;;;;;;;;5001416;28;20592;-70
2023/04/07 03:02:16;;;;;;;14.27;9.10;;;;;;;;;;5012484;28;20623;-70
2023/04/07 03:05:21;;;;;;;14.20;9.23;;;;;;;;;;5012433;28;21151;-70
2023/04/07 03:08:26;;;;;;;12.40;8.87;;;;;;;;;;5001258;28;20541;-70
2023/04/07 03:11:30;;;;;;;13.20;9.20;;;;;;;;;;5001240;28;20973;-70
2023/04/07 03:14:37;;;;;;;13.17;8.83;;;;;;;;;;5000881;28;20541;-70
2023/04/07 03:17:41;;;;;;;11.70;8.17;;;;;;;;;;5000974;28;20549;-70
2023/04/07 03:20:47;;;;;;;11.10;8.10;;;;;;;;;;5012006;28;20612;-70
2023/04/07 03:23:51;;;;;;;11.10;7.83;;;;;;;;;;5000971;28;20898;-70
2023/04/07 03:26:55;;;;;;;11.50;8.03;;;;;;;;;;5013088;28;20536;-70
2023/04/07 03:30:08;;;;;;;10.87;8.50;;;;;;;;;;5012152;28;20549;-70
2023/04/07 03:33:12;;;;;;;11.40;8.77;;;;;;;;;;5011918;28;20597;-70
2023/04/07 03:36:17;;;;;;;12.87;8.73;;;;;;;;;;5011779;28;20600;-70
2023/04/07 03:39:22;;;;;;;12.03;8.23;;;;;;;;;;5011778;28;20586;-70
2023/04/07 03:42:28;;;;;;;10.80;7.83;;;;;;;;;;5015366;28;20615;-70
2023/04/07 03:45:38;;;;;;;11.27;8.10;;;;;;;;;;5014637;28;20544;-70
2023/04/07 03:48:44;;;;;;;12.13;8.23;;;;;;;;;;5015634;28;20533;-70
2023/04/07 03:51:48;;;;;;;11.73;7.27;;;;;;;;;;5004195;28;21175;-71
2023/04/07 03:54:55;;;;;;;11.27;8.20;;;;;;;;;;5015738;28;20537;-71
2023/04/07 03:58:05;;;;;;;10.70;8.10;;;;;;;;;;5004165;28;20541;-71
2023/04/07 04:01:12;;;;;;;10.67;7.90;;;;;;;;;;5014750;28;20623;-71
2023/04/07 04:04:18;;;;;;;10.10;7.67;;;;;;;;;;5004353;28;20541;-71
2023/04/07 04:07:22;;;;;;;10.63;8.00;;;;;;;;;;5015255;28;20902;-70
2023/04/07 04:10:29;;;;;;;11.93;8.40;;;;;;;;;;5004097;28;20544;-71
2023/04/07 04:13:35;;;;;;;10.03;7.20;;;;;;;;;;5015401;28;21097;-71
2023/04/07 04:16:42;;;;;;;13.03;7.47;;;;;;;;;;5004338;28;20540;-70
2023/04/07 04:20:00;;;;;;;10.50;7.53;;;;;;;;;;5002379;28;21148;-70
2023/04/07 04:23:23;;;;;;;11.07;7.33;;;;;;;;;;5003570;28;20549;-71
2023/04/07 04:26:30;;;;;;;9.23;7.30;;;;;;;;;;5003939;28;20177;-70
2023/04/07 04:29:41;;;;;;;9.90;7.03;;;;;;;;;;5003381;28;20875;-71
2023/04/07 04:32:49;;;;;;;13.77;7.90;;;;;;;;;;4992960;28;20552;-70
2023/04/07 04:35:55;;;;;;;11.77;8.17;;;;;;;;;;5003756;28;21076;-71
2023/04/07 04:39:01;;;;;;;11.43;6.90;;;;;;;;;;5014299;28;20639;-71
2023/04/07 04:42:06;;;;;;;8.83;6.90;;;;;;;;;;5011090;23;21021;-75
2023/04/07 04:45:13;;;;;;;8.57;6.43;;;;;;;;;;4995238;28;20891;-75
2023/04/07 04:48:23;;;;;;;9.83;7.27;;;;;;;;;;5006194;28;20546;-76
2023/04/07 04:51:27;;;;;;;8.33;6.47;;;;;;;;;;4994789;28;20613;-76
2023/04/07 04:54:37;;;;;;;11.87;7.00;;;;;;;;;;4995015;28;20546;-75
2023/04/07 04:57:41;;;;;;;11.23;6.63;;;;;;;;;;4995134;28;20186;-76
2023/04/07 05:00:49;;;;;;;8.00;6.07;;;;;;;;;;4994403;28;20214;-76
2023/04/07 05:03:53;;;;;;;7.80;5.97;;;;;;;;;;4994389;28;20202;-76
2023/04/07 05:07:02;;;;;;;8.13;6.40;;;;;;;;;;4994598;28;20532;-76
2023/04/07 05:10:08;;;;;;;8.27;6.47;;;;;;;;;;4983711;28;20182;-76
2023/04/07 05:13:16;;;;;;;10.90;6.40;;;;;;;;;;4994232;28;20187;-76
2023/04/07 05:16:20;;;;;;;9.93;6.70;;;;;;;;;;4995118;28;20190;-76
2023/04/07 05:19:24;;;;;;;11.73;7.67;;;;;;;;;;4983205;28;20548;-76
2023/04/07 05:22:31;;;;;;;11.83;7.43;;;;;;;;;;4994460;28;20222;-75
2023/04/07 05:25:36;;;;;;;12.30;7.93;;;;;;;;;;4993896;28;20655;-75
2023/04/07 05:28:42;;;;;;;9.83;7.70;;;;;;;;;;5005141;28;20225;-75
2023/04/07 05:31:53;;;;;;;10.83;7.50;;;;;;;;;;4994110;28;20222;-75
2023/04/07 05:34:59;;;;;;;11.47;7.90;;;;;;;;;;4982825;28;20198;-75
2023/04/07 05:38:07;;;;;;;9.80;7.17;;;;;;;;;;5005129;28;20198;-75
2023/04/07 05:41:12;;;;;;;11.63;7.57;;;;;;;;;;5001002;28;20225;-76
2023/04/07 05:44:16;;;;;;;10.97;7.20;;;;;;;;;;5013175;28;20566;-75
2023/04/07 05:47:21;;;;;;;9.83;7.67;;;;;;;;;;5013521;28;20642;-75
2023/04/07 05:50:27;;;;;;;8.67;6.93;;;;;;;;;;5012994;28;20551;-75
2023/04/07 05:53:33;;;;;;;10.53;7.50;;;;;;;;;;5013016;28;20185;-76
2023/04/07 05:56:36;;;;;;;13.73;7.50;;;;;;;;;;5013146;28;20189;-76
2023/04/07 05:59:43;;;;;;;11.07;6.90;;;;;;;;;;5013141;28;20209;-76
2023/04/07 06:02:49;;;;;;;9.20;6.27;;;;;;;;;;5013097;28;20276;-75
2023/04/07 06:05:57;;;;;;;11.13;6.43;;;;;;;;;;5013002;28;20185;-76
2023/04/07 06:09:03;;;;;;;9.73;6.40;;;;;;;;;;5001978;28;20174;-76
2023/04/07 06:12:08;;;;;;;8.70;6.23;;;;;;;;;;5013032;28;20225;-75
2023/04/07 06:15:12;;;;;;;9.23;6.50;;;;;;;;;;5013178;28;20190;-76
2023/04/07 06:18:16;;;;;;;9.10;6.33;;;;;;;;;;5012710;28;20186;-75
2023/04/07 06:21:20;;;;;;;9.13;6.53;;;;;;;;;;5014003;28;20217;-76
2023/04/07 06:24:24;;;;;;;9.90;6.97;;;;;;;;;;5012645;28;20201;-76
2023/04/07 06:27:28;;;;;;;10.80;7.20;;;;;;;;;;5024445;28;20185;-76
2023/04/07 06:30:33;;;;;;;10.07;6.87;;;;;;;;;;5013942;28;20177;-76
2023/04/07 06:33:37;;;;;;;8.37;6.83;;;;;;;;;;5012755;28;20530;-76
2023/04/07 06:36:41;;;;;;;9.10;6.33;;;;;;;;;;5001998;28;20185;-76
2023/04/07 06:39:45;;;;;;;9.47;6.63;;;;;;;;;;5012708;28;20209;-76
2023/04/07 06:42:50;;;;;;;9.50;6.73;;;;;;;;;;5013057;28;20173;-76
2023/04/07 06:46:02;;;;;;;7.80;5.83;;;;;;;;;;5001546;28;20511;-76
2023/04/07 06:49:06;;;;;;;9.13;6.93;;;;;;;;;;5013467;28;20190;-76
2023/04/07 06:52:10;;;;;;;10.53;7.37;;;;;;;;;;5001341;28;20221;-77
2023/04/07 06:55:15;;;;;;;9.77;6.00;;;;;;;;;;5013456;28;20182;-76
2023/04/07 06:58:19;;;;;;;8.27;5.60;;;;;;;;;;5013652;28;20178;-76
2023/04/07 07:01:23;;;;;;;9.47;5.53;;;;;;;;;;5013415;28;20209;-76
2023/04/07 07:04:27;;;;;;;10.97;4.93;;;;;;;;;;5013143;28;20186;-76
2023/04/07 07:07:31;;;;;;;6.47;5.33;;;;;;;;;;5012687;28;20642;-76
2023/04/07 07:10:35;;;;;;;7.10;5.60;;;;;;;;;;5012429;28;20185;-76
2023/04/07 07:13:39;;;;;;;7.37;4.97;;;;;;;;;;5012443;28;20189;-76
2023/04/07 07:16:44;;;;;;;9.40;5.27;;;;;;;;;;5014619;28;20190;-76
2023/04/07 07:19:48;;;;;;;5.53;4.90;;;;;;;;;;5016464;28;20670;-76
2023/04/07 07:22:52;;;;;;;6.87;4.67;;;;;;;;;;5015858;28;20214;-76
2023/04/07 07:25:56;;;;;;;6.87;5.10;;;;;;;;;;5015664;28;20205;-76
2023/04/07 07:29:00;;;;;;;6.57;5.13;;;;;;;;;;5016526;28;20519;-76
2023/04/07 07:32:05;;;;;;;7.10;4.63;;;;;;;;;;5016541;28;20217;-76
2023/04/07 07:35:09;;;;;;;6.47;5.00;;;;;;;;;;5015552;28;20181;-76
2023/04/07 07:38:13;;;;;;;8.43;5.10;;;;;;;;;;5016858;28;20520;-77
2023/04/07 07:41:17;;;;;;;6.27;4.80;;;;;;;;;;5014983;28;20240;-76
2023/04/07 07:44:22;;;;;;;6.33;4.73;;;;;;;;;;5015347;28;20189;-76
2023/04/07 07:47:26;;;;;;;7.77;4.80;;;;;;;;;;5016421;28;20189;-76
2023/04/07 07:50:30;;;;;;;8.00;5.83;;;;;;;;;;5015991;28;20182;-76
2023/04/07 07:53:35;;;;;;;7.50;5.73;;;;;;;;;;5016043;28;20186;-76
2023/04/07 07:56:39;;;;;;;7.87;6.10;;;;;;;;;;5016235;28;20185;-76
2023/04/07 07:59:43;;;;;;;7.17;5.87;;;;;;;;;;5016240;28;20229;-77
2023/04/07 08:02:47;;;;;;;7.87;5.60;;;;;;;;;;5004324;28;20690;-76
2023/04/07 08:05:51;;;;;;;7.77;5.67;;;;;;;;;;5016136;28;20177;-76
2023/04/07 08:08:56;;;;;;;7.57;5.67;;;;;;;;;;5016017;28;20181;-76
2023/04/07 08:12:00;;;;;;;6.80;5.57;;;;;;;;;;5015612;28;20217;-75
2023/04/07 08:15:08;;;;;;;7.67;4.53;;;;;;;;;;5015666;28;20186;-75
2023/04/07 08:18:12;;;;;;;5.90;5.07;;;;;;;;;;5014805;28;20201;-77
2023/04/07 08:21:17;;;;;;;6.83;5.40;;;;;;;;;;5015031;28;20228;-76
2023/04/07 08:24:21;;;;;;;7.03;5.53;;;;;;;;;;5015659;28;20178;-76
2023/04/07 08:27:25;;;;;;;8.70;6.40;;;;;;;;;;5026419;28;20177;-76
2023/04/07 08:30:29;;;;;;;8.27;6.20;;;;;;;;;;5026104;28;20178;-76
2023/04/07 08:33:33;;;;;;;7.07;6.00;;;;;;;;;;5014962;28;20181;-76
2023/04/07 08:36:37;;;;;;;7.73;5.80;;;;;;;;;;5014448;28;20202;-76
2023/04/07 08:39:41;;;;;;;7.53;6.07;;;;;;;;;;5025962;28;20193;-76
2023/04/07 08:42:47;;;;;;;9.43;6.20;;;;;;;;;;5014233;28;20225;-76
2023/04/07 08:45:54;;;;;;;7.80;5.30;;;;;;;;;;5014532;28;20205;-76
2023/04/07 08:49:00;;;;;;;6.60;5.57;;;;;;;;;;5015178;28;20190;-76
2023/04/07 08:52:08;;;;;;;6.43;5.70;;;;;;;;;;5015202;28;20558;-77
2023/04/07 08:55:12;;;;;;;9.87;5.90;;;;;;;;;;5015292;28;20189;-77
2023/04/07 08:58:18;;;;;;;7.77;5.20;;;;;;;;;;5014387;28;20642;-76
2023/04/07 09:01:24;;;;;;;7.33;6.20;;;;;;;;;;5013897;28;20233;-77
2023/04/07 09:04:28;;;;;;;7.90;5.97;;;;;;;;;;5014339;28;20186;-77
2023/04/07 09:07:34;;;;;;;9.10;5.90;;;;;;;;;;5015168;28;20523;-77
2023/04/07 09:10:38;;;;;;;6.57;5.87;;;;;;;;;;5015467;28;20181;-77
2023/04/07 09:13:42;;;;;;;7.23;5.97;;;;;;;;;;5014133;28;20186;-77
2023/04/07 09:16:46;;;;;;;6.77;5.47;;;;;;;;;;5014280;28;20190;-76
2023/04/07 09:19:52;;;;;;;7.47;5.77;;;;;;;;;;5014456;28;20194;-77
2023/04/07 09:22:56;;;;;;;6.70;5.77;;;;;;;;;;5013802;28;20189;-77
2023/04/07 09:26:23;;;;;;;8.00;5.93;;;;;;;;;;5025525;28;20182;-77
2023/04/07 09:29:27;;;;;;;8.10;5.70;;;;;;;;;;5014325;28;20190;-77
2023/04/07 09:32:37;;;;;;;7.50;5.93;;;;;;;;;;5013421;28;20685;-76
2023/04/07 09:35:52;;;;;;;7.37;5.40;;;;;;;;;;5014041;28;20177;-77
2023/04/07 09:39:07;;;;;;;6.70;5.60;;;;;;;;;;5012927;28;20197;-76
2023/04/07 09:42:10;;;;;;;7.10;5.30;;;;;;;;;;5024707;28;20225;-76
2023/04/07 09:45:23;;;;;;;6.90;5.07;;;;;;;;;;5013546;28;20185;-76
2023/04/07 09:48:28;;;;;;;6.90;5.70;;;;;;;;;;5013204;28;20190;-77
2023/04/07 09:51:35;;;;;;;9.57;5.70;;;;;;;;;;5013484;28;20221;-77
2023/04/07 09:54:40;;;;;;;7.00;5.73;;;;;;;;;;5014166;28;20185;-76
2023/04/07 09:57:45;;;;;;;6.30;5.60;;;;;;;;;;5013363;28;20189;-77
2023/04/07 10:00:49;;;;;;;7.33;5.40;;;;;;;;;;5013272;28;20229;-77
2023/04/07 10:03:55;;;;;;;6.53;5.03;;;;;;;;;;5014297;28;20181;-77
2023/04/07 10:06:59;;;;;;;7.07;5.10;;;;;;;;;;5013393;28;20186;-77
2023/04/07 10:10:04;;;;;;;6.60;5.90;;;;;;;;;;5013941;28;20205;-77
2023/04/07 10:13:08;;;;;;;7.10;5.30;;;;;;;;;;5013575;28;20204;-77
2023/04/07 10:16:12;;;;;;;6.87;5.57;;;;;;;;;;5024064;28;20186;-77
2023/04/07 10:19:18;;;;;;;17.23;11.90;;;;;;;;;;5013872;28;20186;-77
2023/04/07 10:22:23;;;;;;;9.53;7.60;;;;;;;;;;5012667;28;20232;-76
2023/04/07 10:25:27;;;;;;;7.30;6.20;;;;;;;;;;5024324;28;20186;-77
2023/04/07 10:28:36;;;;;;;19.47;12.70;;;;;;;;;;5013757;28;20185;-77
2023/04/07 10:31:41;;;;;;;8.57;6.07;;;;;;;;;;5012557;28;20220;-76
2023/04/07 10:34:54;;;;;;;8.43;6.43;;;;;;;;;;5012528;28;20201;-77
2023/04/07 10:38:12;;;;;;;9.47;5.90;;;;;;;;;;5012777;28;20182;-76
2023/04/07 10:41:33;;;;;;;7.17;5.77;;;;;;;;;;5029065;23;20245;-71
2023/04/07 10:44:37;;;;;;;8.30;6.23;;;;;;;;;;5001391;28;20535;-71
2023/04/07 10:48:09;;;;;;;9.97;6.10;;;;;;;;;;5013206;28;20181;-70
2023/04/07 10:51:14;;;;;;;7.27;5.37;;;;;;;;;;5017248;28;20221;-71
2023/04/07 10:54:21;;;;;;;6.50;5.73;;;;;;;;;;5017775;28;20186;-71
2023/04/07 10:57:25;;;;;;;6.70;5.60;;;;;;;;;;5017161;28;20181;-71
2023/04/07 11:00:29;;;;;;;7.33;6.13;;;;;;;;;;5017236;28;20213;-71
2023/04/07 11:03:38;;;;;;;6.10;5.37;;;;;;;;;;5017155;28;20185;-71
2023/04/07 11:06:47;;;;;;;7.20;5.53;;;;;;;;;;5005265;28;20190;-71
2023/04/07 11:10:08;;;;;;;7.03;5.30;;;;;;;;;;5005141;28;20185;-71
2023/04/07 11:13:12;;;;;;;6.20;5.10;;;;;;;;;;5017188;28;20178;-71
2023/04/07 11:16:18;;;;;;;14.53;6.23;;;;;;;;;;5017075;28;20181;-71
2023/04/07 11:19:22;;;;;;;6.10;4.77;;;;;;;;;;5016045;28;20196;-71
2023/04/07 11:22:26;;;;;;;6.27;5.50;;;;;;;;;;5016696;28;20229;-71
2023/04/07 11:25:32;;;;;;;6.13;5.37;;;;;;;;;;5005367;28;20186;-71
2023/04/07 11:28:58;;;;;;;6.60;5.70;;;;;;;;;;5016854;28;20185;-71
2023/04/07 11:32:03;;;;;;;5.37;4.83;;;;;;;;;;5017023;28;20221;-72
2023/04/07 11:35:08;;;;;;;5.97;4.87;;;;;;;;;;5017308;28;20181;-71
2023/04/07 11:38:12;;;;;;;10.00;6.83;;;;;;;;;;5016674;28;20182;-71
2023/04/07 11:41:17;;;;;;;5.93;5.10;;;;;;;;;;5016805;28;20229;-71
2023/04/07 11:44:21;;;;;;;6.97;4.43;;;;;;;;;;4993522;28;20634;-71
2023/04/07 11:47:35;;;;;;;4.87;4.37;;;;;;;;;;5016445;28;20546;-71
2023/04/07 11:50:40;;;;;;;6.57;4.60;;;;;;;;;;5016651;28;20190;-71
2023/04/07 11:53:45;;;;;;;8.73;5.30;;;;;;;;;;5016641;28;20543;-71
2023/04/07 11:56:54;;;;;;;5.33;4.80;;;;;;;;;;5016430;28;20190;-71
2023/04/07 12:00:05;;;;;;;8.53;5.33;;;;;;;;;;5017012;28;20182;-71
2023/04/07 12:03:13;;;;;;;5.77;5.17;;;;;;;;;;5003901;28;20511;-71
2023/04/07 12:06:29;;;;;;;7.83;4.77;;;;;;;;;;5004352;28;20518;-71
2023/04/07 12:09:37;;;;;;;6.07;4.60;;;;;;;;;;5016047;28;20190;-71
2023/04/07 12:12:45;;;;;;;5.10;4.60;;;;;;;;;;5015861;28;20217;-71
2023/04/07 12:15:48;;;;;;;5.57;4.97;;;;;;;;;;5016100;28;20189;-71
2023/04/07 12:18:53;;;;;;;5.37;4.87;;;;;;;;;;5003921;28;20189;-71
2023/04/07 12:21:57;;;;;;;6.63;5.03;;;;;;;;;;5015562;28;20229;-71
2023/04/07 12:25:01;;;;;;;7.20;4.97;;;;;;;;;;5004220;28;20194;-71
2023/04/07 12:28:06;;;;;;;5.60;5.00;;;;;;;;;;5015840;28;20185;-71
2023/04/07 12:31:11;;;;;;;5.80;5.10;;;;;;;;;;5003788;28;20686;-71
2023/04/07 12:34:15;;;;;;;5.10;4.60;;;;;;;;;;5003409;28;20201;-71
2023/04/07 12:37:19;;;;;;;6.53;4.73;;;;;;;;;;5015595;28;20205;-71
2023/04/07 12:40:23;;;;;;;7.43;5.17;;;;;;;;;;5003805;28;20181;-71
2023/04/07 12:43:31;;;;;;;5.37;4.37;;;;;;;;;;4992998;28;20166;-71
2023/04/07 12:46:35;;;;;;;7.73;5.57;;;;;;;;;;5003911;28;20194;-71
2023/04/07 12:49:39;;;;;;;6.37;5.30;;;;;;;;;;5003597;28;20193;-72
2023/04/07 12:52:43;;;;;;;23.70;5.80;;;;;;;;;;5014566;28;20221;-71
2023/04/07 12:55:47;;;;;;;7.63;4.87;;;;;;;;;;5015165;28;20192;-71
2023/04/07 12:58:52;;;;;;;7.03;5.57;;;;;;;;;;5015346;28;20531;-71
2023/04/07 13:01:56;;;;;;;6.87;4.70;;;;;;;;;;5002674;28;20221;-71
2023/04/07 13:05:00;;;;;;;6.77;4.50;;;;;;;;;;5003088;28;20193;-71
2023/04/07 13:08:04;;;;;;;6.77;5.17;;;;;;;;;;5015029;28;20181;-71
2023/04/07 13:11:09;;;;;;;5.37;4.87;;;;;;;;;;5014680;28;20217;-71
2023/04/07 13:14:13;;;;;;;6.13;4.80;;;;;;;;;;5014040;28;20185;-71
2023/04/07 13:17:18;;;;;;;6.00;4.67;;;;;;;;;;5002700;28;20185;-71
2023/04/07 13:20:22;;;;;;;6.33;5.30;;;;;;;;;;5014311;28;20212;-71
2023/04/07 13:23:26;;;;;;;14.87;5.37;;;;;;;;;;5014687;28;20185;-71
2023/04/07 13:26:30;;;;;;;6.90;5.50;;;;;;;;;;5003141;28;20201;-71
2023/04/07 13:29:34;;;;;;;11.57;6.47;;;;;;;;;;5015020;28;20185;-71
2023/04/07 13:32:38;;;;;;;5.23;4.73;;;;;;;;;;5002593;28;20225;-71
2023/04/07 13:35:42;;;;;;;8.13;4.60;;;;;;;;;;4991394;28;20190;-71
2023/04/07 13:38:47;;;;;;;4.93;4.30;;;;;;;;;;5014578;28;20182;-71
2023/04/07 13:41:51;;;;;;;5.23;4.30;;;;;;;;;;5013311;28;20587;-71
2023/04/07 13:44:55;;;;;;;6.10;4.33;;;;;;;;;;5002471;28;20193;-71
2023/04/07 13:47:59;;;;;;;5.13;3.80;;;;;;;;;;5014382;28;20182;-71
2023/04/07 13:51:04;;;;;;;4.70;4.17;;;;;;;;;;5014411;28;20221;-71
2023/04/07 13:54:09;;;;;;;6.43;4.53;;;;;;;;;;5014168;28;20201;-71
2023/04/07 13:57:19;;;;;;;5.03;4.07;;;;;;;;;;5002432;28;20607;-71
2023/04/07 14:00:23;;;;;;;5.53;4.40;;;;;;;;;;5014321;28;20185;-71
2023/04/07 14:03:28;;;;;;;5.07;4.10;;;;;;;;;;5014048;28;20217;-71
2023/04/07 14:06:32;;;;;;;6.00;4.20;;;;;;;;;;5001722;28;20209;-70
2023/04/07 14:09:36;;;;;;;6.70;4.50;;;;;;;;;;5002532;28;20201;-71
2023/04/07 14:12:41;;;;;;;5.03;3.97;;;;;;;;;;5013664;28;20217;-71
2023/04/07 14:15:45;;;;;;;4.90;4.40;;;;;;;;;;5014063;28;20209;-71
2023/04/07 14:18:50;;;;;;;5.17;4.63;;;;;;;;;;5013067;28;20201;-71
2023/04/07 14:21:54;;;;;;;9.27;7.10;;;;;;;;;;5013411;28;20221;-71
2023/04/07 14:24:58;;;;;;;8.30;5.37;;;;;;;;;;5013751;28;20186;-72
2023/04/07 14:28:02;;;;;;;8.43;5.37;;;;;;;;;;5001516;28;20204;-71
2023/04/07 14:31:11;;;;;;;8.73;3.93;;;;;;;;;;5001453;28;20225;-71
2023/04/07 14:34:15;;;;;;;8.80;6.07;;;;;;;;;;5013570;28;20634;-71
2023/04/07 14:37:23;;;;;;;14.67;6.87;;;;;;;;;;5013688;28;20185;-71
2023/04/07 14:40:27;;;;;;;5.60;4.10;;;;;;;;;;5013581;28;20256;-71
2023/04/07 14:43:31;;;;;;;10.03;6.43;;;;;;;;;;5002272;28;20209;-71
2023/04/07 14:46:35;;;;;;;6.40;5.30;;;;;;;;;;5013828;28;20581;-71
2023/04/07 14:49:39;;;;;;;6.43;4.30;;;;;;;;;;5013929;28;20189;-71
2023/04/07 14:52:44;;;;;;;5.13;4.63;;;;;;;;;;5001878;28;20217;-71
2023/04/07 14:55:48;;;;;;;5.63;4.63;;;;;;;;;;5013346;28;20566;-71
2023/04/07 14:58:52;;;;;;;9.17;4.70;;;;;;;;;;5013208;28;20197;-71
2023/04/07 15:01:56;;;;;;;7.67;5.13;;;;;;;;;;5013418;28;20229;-71
2023/04/07 15:05:01;;;;;;;4.60;4.20;;;;;;;;;;5012481;28;20205;-71
2023/04/07 15:08:05;;;;;;;5.37;4.77;;;;;;;;;;5013492;28;20185;-71
2023/04/07 15:11:09;;;;;;;5.80;4.63;;;;;;;;;;5013404;28;20217;-73
2023/04/07 15:14:14;;;;;;;5.97;4.80;;;;;;;;;;5013149;28;20205;-71
2023/04/07 15:17:18;;;;;;;12.90;9.53;;;;;;;;;;5001018;28;20189;-71
2023/04/07 15:20:22;;;;;;;6.83;4.90;;;;;;;;;;5000996;28;20573;-71
2023/04/07 15:23:27;;;;;;;79.70;46.90;;;;;;;;;;5013142;28;20693;-71
2023/04/07 15:26:31;;;;;;;43.30;27.13;;;;;;;;;;5013240;28;20200;-71
2023/04/07 15:29:36;;;;;;;19.70;12.93;;;;;;;;;;5013027;28;20192;-71
2023/04/07 15:32:40;;;;;;;8.77;6.43;;;;;;;;;;5012842;28;20224;-71
2023/04/07 15:35:44;;;;;;;7.67;4.87;;;;;;;;;;5013245;28;20181;-71
2023/04/07 15:38:48;;;;;;;6.77;5.57;;;;;;;;;;5016601;28;20185;-71
2023/04/07 15:41:52;;;;;;;7.50;5.40;;;;;;;;;;5016366;28;20225;-71
2023/04/07 15:44:57;;;;;;;8.77;5.30;;;;;;;;;;5004495;28;20213;-71
2023/04/07 15:48:01;;;;;;;11.87;6.33;;;;;;;;;;5016350;28;20213;-71
2023/04/07 15:51:05;;;;;;;7.93;5.27;;;;;;;;;;4993368;28;20598;-71
2023/04/07 15:54:09;;;;;;;7.47;6.07;;;;;;;;;;5016493;28;20527;-71
2023/04/07 15:57:15;;;;;;;8.03;5.50;;;;;;;;;;5016427;28;20185;-71
2023/04/07 16:00:20;;;;;;;6.13;5.17;;;;;;;;;;5004590;28;20177;-71
2023/04/07 16:03:26;;;;;;;6.73;4.50;;;;;;;;;;5015949;28;20205;-71
2023/04/07 16:06:30;;;;;;;5.90;4.40;;;;;;;;;;5015955;28;20646;-71
2023/04/07 16:09:34;;;;;;;7.13;5.07;;;;;;;;;;5016465;28;20186;-71
2023/04/07 16:12:39;;;;;;;8.73;5.97;;;;;;;;;;5016096;28;20216;-71
2023/04/07 16:15:43;;;;;;;8.47;5.40;;;;;;;;;;5016447;28;20181;-71
2023/04/07 16:18:47;;;;;;;7.47;5.30;;;;;;;;;;5015918;28;20193;-71
2023/04/07 16:21:51;;;;;;;7.43;5.37;;;;;;;;;;5015985;28;20225;-71
2023/04/07 16:24:56;;;;;;;6.20;4.90;;;;;;;;;;5016321;28;20189;-71
2023/04/07 16:28:00;;;;;;;11.30;7.47;;;;;;;;;;5004124;28;20523;-71
2023/04/07 16:31:07;;;;;;;24.90;16.33;;;;;;;;;;5015846;28;20232;-71
2023/04/07 16:34:11;;;;;;;23.90;16.20;;;;;;;;;;5015477;28;20184;-71
2023/04/07 16:37:15;;;;;;;13.17;9.67;;;;;;;;;;4992346;28;20197;-71
2023/04/07 16:40:20;;;;;;;10.20;7.33;;;;;;;;;;5015311;28;20185;-71
2023/04/07 16:43:24;;;;;;;9.13;6.63;;;;;;;;;;5063003;23;20235;-76
2023/04/07 16:46:28;;;;;;;13.27;5.67;;;;;;;;;;5042769;28;20192;-76
2023/04/07 16:49:33;;;;;;;6.63;4.90;;;;;;;;;;5042548;28;20200;-76
2023/04/07 16:52:37;;;;;;;6.67;4.73;;;;;;;;;;5041167;28;20220;-75
2023/04/07 16:55:41;;;;;;;6.27;4.70;;;;;;;;;;5041126;28;20183;-76
2023/04/07 16:58:49;;;;;;;8.27;4.50;;;;;;;;;;5042205;28;20176;-75
2023/04/07 17:01:53;;;;;;;7.30;4.33;;;;;;;;;;5042194;28;20223;-75
2023/04/07 17:04:57;;;;;;;6.80;3.97;;;;;;;;;;5042769;28;20192;-75
2023/04/07 17:08:02;;;;;;;7.13;4.40;;;;;;;;;;5043377;28;20188;-75
2023/04/07 17:11:07;;;;;;;5.70;4.40;;;;;;;;;;5055177;28;20220;-76
2023/04/07 17:14:11;;;;;;;5.43;4.53;;;;;;;;;;5042817;28;20180;-75
2023/04/07 17:17:16;;;;;;;4.90;4.03;;;;;;;;;;5042149;28;20188;-75
2023/04/07 17:20:21;;;;;;;4.80;4.17;;;;;;;;;;5054836;28;20184;-75
2023/04/07 17:23:27;;;;;;;3.90;3.50;;;;;;;;;;5031034;28;20208;-76
2023/04/07 17:26:31;;;;;;;4.37;3.80;;;;;;;;;;5042878;28;20196;-77
2023/04/07 17:29:35;;;;;;;4.43;3.87;;;;;;;;;;5043178;28;20206;-76
2023/04/07 17:32:40;;;;;;;6.03;3.77;;;;;;;;;;5054285;28;20216;-76
2023/04/07 17:35:46;;;;;;;7.00;4.37;;;;;;;;;;5054835;28;20628;-76
2023/04/07 17:38:50;;;;;;;6.07;4.53;;;;;;;;;;5054185;28;20193;-75
2023/04/07 17:41:55;;;;;;;5.17;3.77;;;;;;;;;;5053547;28;20253;-75
2023/04/07 17:44:59;;;;;;;5.73;3.87;;;;;;;;;;5042009;28;20180;-76
2023/04/07 17:48:03;;;;;;;5.47;3.80;;;;;;;;;;5030218;28;20188;-76
2023/04/07 17:51:07;;;;;;;5.43;4.30;;;;;;;;;;5041511;28;20215;-76
2023/04/07 17:54:12;;;;;;;4.10;3.70;;;;;;;;;;5041759;28;20180;-76
2023/04/07 17:57:17;;;;;;;4.97;3.60;;;;;;;;;;5029807;28;20541;-75
2023/04/07 18:00:21;;;;;;;4.13;3.30;;;;;;;;;;5053112;28;20189;-76
2023/04/07 18:03:25;;;;;;;4.57;3.97;;;;;;;;;;5053536;28;20211;-75
2023/04/07 18:06:31;;;;;;;4.33;3.57;;;;;;;;;;5041371;28;20188;-76
2023/04/07 18:09:35;;;;;;;5.07;3.83;;;;;;;;;;5041304;28;20645;-75
2023/04/07 18:12:40;;;;;;;4.50;4.07;;;;;;;;;;5041345;28;20215;-76
2023/04/07 18:15:44;;;;;;;5.10;3.80;;;;;;;;;;5054228;28;20188;-77
2023/04/07 18:18:48;;;;;;;6.70;3.70;;;;;;;;;;5041062;28;20180;-76
2023/04/07 18:21:53;;;;;;;4.13;3.57;;;;;;;;;;5029592;28;20557;-72
2023/04/07 18:24:59;;;;;;;5.60;3.83;;;;;;;;;;5041079;28;20173;-73
2023/04/07 18:28:03;;;;;;;4.17;3.40;;;;;;;;;;5053249;28;20184;-73